Time;durP1;ratioP1;P1;durP2;ratioP2;P2;SDS_P1;SDS_P2;PMS_P1;PMS_P2;Temp;Humidity;BMP_temperature;BMP_pressure;BME280_temperature;BME280_humidity;BME280_pressure;Samples;Min_cycle;Max_cycle;Signal;HPM_P1;HPM_P2
2024/02/20 00:01:24;;;;;;;25.93;9.43;;;9.90;99.90;;;;;;5093791;28;20191;-83
2024/02/20 00:03:49;;;;;;;24.00;9.10;;;9.80;99.90;;;;;;5094707;28;20254;-81
2024/02/20 00:06:15;;;;;;;19.73;9.17;;;9.80;99.90;;;;;;5096940;28;20177;-82
2024/02/20 00:08:41;;;;;;;22.53;9.63;;;9.80;99.90;;;;;;5096852;28;20531;-83
2024/02/20 00:11:07;;;;;;;22.10;9.97;;;9.90;99.90;;;;;;5097119;28;20658;-84
2024/02/20 00:13:32;;;;;;;28.70;9.73;;;9.80;99.90;;;;;;5097656;28;20174;-81
2024/02/20 00:15:59;;;;;;;27.80;9.90;;;9.70;99.90;;;;;;5096812;28;20634;-92
2024/02/20 00:18:24;;;;;;;17.80;9.40;;;9.70;99.90;;;;;;5097853;28;20202;-82
2024/02/20 00:20:50;;;;;;;29.40;9.83;;;9.70;99.90;;;;;;5096626;28;20290;-82
2024/02/20 00:23:17;;;;;;;21.57;9.77;;;9.80;99.90;;;;;;5097695;28;20266;-82
2024/02/20 00:25:43;;;;;;;22.30;9.10;;;9.80;99.90;;;;;;5096989;28;20539;-82
2024/02/20 00:28:08;;;;;;;19.60;9.17;;;9.70;99.90;;;;;;5096918;28;20159;-82
2024/02/20 00:30:34;;;;;;;24.43;9.67;;;9.70;99.90;;;;;;5096657;28;20699;-86
2024/02/20 00:33:00;;;;;;;22.73;9.40;;;9.60;99.90;;;;;;5097256;28;20164;-83
2024/02/20 00:35:26;;;;;;;22.80;9.70;;;9.40;99.90;;;;;;5097571;28;20175;-83
2024/02/20 00:37:51;;;;;;;23.03;9.77;;;9.50;99.90;;;;;;5097133;28;20536;-90
2024/02/20 00:40:18;;;;;;;23.17;9.63;;;9.40;99.90;;;;;;5097183;28;20194;-82
2024/02/20 00:42:45;;;;;;;17.53;8.77;;;9.30;99.90;;;;;;5097469;28;20190;-81
2024/02/20 00:45:12;;;;;;;17.60;9.30;;;9.30;99.90;;;;;;5096723;28;20254;-86
2024/02/20 00:47:37;;;;;;;22.70;9.70;;;9.30;99.90;;;;;;5096631;28;20167;-81
2024/02/20 00:50:03;;;;;;;18.80;9.30;;;9.40;99.90;;;;;;5096912;28;20186;-81
2024/02/20 00:52:29;;;;;;;18.07;8.90;;;9.30;99.90;;;;;;5096695;28;20252;-83
2024/02/20 00:54:55;;;;;;;23.13;9.93;;;9.30;99.90;;;;;;5096579;28;20206;-81
2024/02/20 00:57:20;;;;;;;19.13;9.17;;;9.20;99.90;;;;;;5096411;28;20205;-82
2024/02/20 00:59:46;;;;;;;17.90;8.43;;;9.00;99.90;;;;;;5095320;28;20683;-81
2024/02/20 01:02:12;;;;;;;17.50;9.27;;;9.10;99.90;;;;;;5113629;28;20187;-82
2024/02/20 01:04:41;;;;;;;19.13;9.00;;;9.00;99.90;;;;;;5095299;28;20171;-83
2024/02/20 01:07:07;;;;;;;23.10;10.70;;;9.10;99.90;;;;;;5096739;28;20244;-84
2024/02/20 01:09:33;;;;;;;26.87;10.93;;;9.10;99.90;;;;;;5095408;28;20178;-82
2024/02/20 01:11:59;;;;;;;22.07;9.90;;;9.20;99.90;;;;;;5095924;28;20201;-81
2024/02/20 01:14:25;;;;;;;22.80;10.13;;;9.10;99.90;;;;;;5096711;28;20274;-83
2024/02/20 01:16:50;;;;;;;18.17;9.20;;;9.10;99.90;;;;;;5095934;28;20217;-81
2024/02/20 01:19:16;;;;;;;20.20;9.57;;;8.80;99.90;;;;;;5096306;28;20627;-89
2024/02/20 01:21:41;;;;;;;19.83;9.97;;;8.80;99.90;;;;;;5096595;28;20186;-81
2024/02/20 01:24:08;;;;;;;22.87;10.63;;;8.80;99.90;;;;;;5096736;28;20170;-82
2024/02/20 01:26:33;;;;;;;19.03;9.43;;;9.00;99.90;;;;;;5095213;28;20180;-83
2024/02/20 01:28:59;;;;;;;22.20;10.47;;;8.90;99.90;;;;;;5095568;28;20163;-83
2024/02/20 01:31:25;;;;;;;23.13;10.80;;;8.80;99.90;;;;;;5096298;28;20178;-82
2024/02/20 01:33:51;;;;;;;17.93;9.37;;;8.80;99.90;;;;;;5095947;28;20178;-83
2024/02/20 01:36:19;;;;;;;20.97;10.47;;;8.80;99.90;;;;;;5096257;28;20638;-83
2024/02/20 01:38:46;;;;;;;19.83;9.97;;;8.80;99.90;;;;;;5114144;28;20224;-82
2024/02/20 01:41:12;;;;;;;23.10;10.37;;;8.90;99.90;;;;;;5114046;28;20199;-82
2024/02/20 01:43:37;;;;;;;22.43;11.30;;;8.90;99.90;;;;;;5095996;28;20209;-82
2024/02/20 01:46:04;;;;;;;25.93;11.27;;;9.00;99.90;;;;;;5094506;28;20206;-82
2024/02/20 01:48:30;;;;;;;22.03;10.47;;;8.90;99.90;;;;;;5095338;28;20171;-82
2024/02/20 01:50:56;;;;;;;21.67;10.67;;;8.70;99.90;;;;;;5095232;28;20228;-83
2024/02/20 01:53:22;;;;;;;20.00;9.97;;;8.70;99.90;;;;;;5095614;28;20637;-90
2024/02/20 01:55:48;;;;;;;19.50;10.40;;;8.80;99.90;;;;;;5095744;28;20175;-82
2024/02/20 01:58:14;;;;;;;21.93;11.50;;;8.80;99.90;;;;;;5095891;28;20194;-82
2024/02/20 02:00:40;;;;;;;18.33;10.83;;;8.70;99.90;;;;;;5096408;28;20268;-81
2024/02/20 02:03:06;;;;;;;19.50;9.97;;;8.80;99.90;;;;;;5094965;28;20545;-82
2024/02/20 02:05:32;;;;;;;28.77;12.57;;;8.80;99.90;;;;;;5095272;28;20174;-81
2024/02/20 02:07:59;;;;;;;27.77;11.27;;;8.70;99.90;;;;;;5095053;28;20287;-82
2024/02/20 02:10:25;;;;;;;24.43;11.33;;;8.70;99.90;;;;;;5095358;28;20178;-82
2024/02/20 02:12:52;;;;;;;17.77;11.03;;;8.60;99.90;;;;;;5095082;28;20178;-81
2024/02/20 02:15:18;;;;;;;23.33;11.80;;;8.60;99.90;;;;;;5095586;28;20188;-82
2024/02/20 02:17:44;;;;;;;23.10;10.73;;;8.70;99.90;;;;;;5095870;28;20319;-81
2024/02/20 02:20:10;;;;;;;22.60;12.00;;;8.70;99.90;;;;;;5096055;28;20302;-82
2024/02/20 02:22:35;;;;;;;24.60;11.27;;;8.50;99.90;;;;;;5113153;28;20163;-83
2024/02/20 02:25:03;;;;;;;21.73;11.90;;;8.70;99.90;;;;;;5094827;28;20323;-81
2024/02/20 02:27:29;;;;;;;23.53;11.20;;;8.60;99.90;;;;;;5113012;28;20163;-82
2024/02/20 02:29:54;;;;;;;25.23;11.90;;;8.70;99.90;;;;;;5094493;28;20579;-82
2024/02/20 02:32:20;;;;;;;25.07;12.03;;;8.60;99.90;;;;;;5094360;28;20179;-81
2024/02/20 02:34:46;;;;;;;24.20;11.70;;;8.60;99.90;;;;;;5094231;28;20174;-82
2024/02/20 02:37:11;;;;;;;24.97;12.67;;;8.60;99.90;;;;;;5095361;28;20181;-82
2024/02/20 02:39:37;;;;;;;23.10;11.40;;;8.70;99.90;;;;;;5095023;28;20233;-83
2024/02/20 02:42:03;;;;;;;23.20;11.63;;;8.60;99.90;;;;;;5094925;28;20232;-82
2024/02/20 02:44:28;;;;;;;22.13;11.80;;;8.70;99.90;;;;;;5094420;28;20198;-82
2024/02/20 02:46:54;;;;;;;21.50;11.93;;;8.70;99.90;;;;;;5095166;28;20275;-88
2024/02/20 02:49:20;;;;;;;24.40;12.50;;;8.60;99.90;;;;;;5093895;28;20665;-81
2024/02/20 02:51:46;;;;;;;23.67;12.00;;;8.70;99.90;;;;;;5094366;28;20182;-82
2024/02/20 02:54:11;;;;;;;28.23;12.27;;;8.80;99.90;;;;;;5094915;28;20166;-82
2024/02/20 02:56:37;;;;;;;29.70;12.77;;;8.50;99.90;;;;;;5093392;28;20718;-81
2024/02/20 02:59:04;;;;;;;22.87;12.00;;;8.50;99.90;;;;;;5093783;28;20232;-80
2024/02/20 03:01:30;;;;;;;21.53;13.00;;;8.40;99.90;;;;;;5094691;28;20218;-81
2024/02/20 03:03:58;;;;;;;30.10;12.87;;;8.50;99.90;;;;;;5094064;28;20783;-82
2024/02/20 03:06:23;;;;;;;24.83;12.17;;;8.50;99.90;;;;;;5113038;28;20253;-82
2024/02/20 03:08:49;;;;;;;24.53;12.83;;;8.40;99.90;;;;;;5094080;28;20262;-82
2024/02/20 03:11:16;;;;;;;27.47;12.63;;;8.40;99.90;;;;;;5113097;28;20215;-83
2024/02/20 03:13:42;;;;;;;28.83;14.50;;;8.60;99.90;;;;;;5112875;28;20163;-83
2024/02/20 03:16:08;;;;;;;27.00;13.33;;;8.60;99.90;;;;;;5112860;28;20178;-82
2024/02/20 03:18:38;;;;;;;29.10;13.53;;;8.60;99.90;;;;;;5093981;28;20547;-81
2024/02/20 03:21:06;;;;;;;25.80;12.83;;;8.60;99.90;;;;;;5094368;28;20256;-83
2024/02/20 03:23:32;;;;;;;24.47;12.77;;;8.60;99.90;;;;;;5093745;28;20179;-82
2024/02/20 03:25:59;;;;;;;25.03;13.27;;;8.40;99.90;;;;;;5096968;28;20183;-82
2024/02/20 03:28:25;;;;;;;20.20;11.77;;;8.50;99.90;;;;;;5094619;28;20175;-82
2024/02/20 03:30:54;;;;;;;28.10;13.33;;;8.40;99.90;;;;;;5095824;28;20190;-81
2024/02/20 03:33:20;;;;;;;23.23;12.60;;;8.50;99.90;;;;;;5095007;28;20684;-81
2024/02/20 03:35:46;;;;;;;21.97;13.37;;;8.40;99.90;;;;;;5112896;28;20175;-82
2024/02/20 03:38:12;;;;;;;25.93;12.83;;;8.40;99.90;;;;;;5093931;28;20661;-81
2024/02/20 03:40:37;;;;;;;29.50;13.50;;;8.40;99.90;;;;;;5111935;28;20206;-84
2024/02/20 03:43:03;;;;;;;25.27;13.53;;;8.40;99.90;;;;;;5097921;28;20171;-83
2024/02/20 03:45:29;;;;;;;25.73;13.80;;;8.40;99.90;;;;;;5116480;28;20657;-81
2024/02/20 03:47:55;;;;;;;31.67;12.10;;;8.50;99.90;;;;;;5101082;28;20182;-82
2024/02/20 03:50:21;;;;;;;25.53;12.17;;;8.50;99.90;;;;;;5105228;28;20215;-82
2024/02/20 03:52:47;;;;;;;21.97;11.63;;;8.40;99.90;;;;;;5100856;28;20171;-81
2024/02/20 03:55:13;;;;;;;23.07;12.33;;;8.40;99.90;;;;;;5116620;28;20190;-84
2024/02/20 03:57:38;;;;;;;24.30;12.30;;;8.30;99.90;;;;;;5116848;28;20173;-83
2024/02/20 04:00:11;;;;;;;27.63;12.90;;;8.30;99.90;;;;;;5097008;28;20217;-82
2024/02/20 04:02:41;;;;;;;24.13;12.23;;;8.30;99.90;;;;;;5097718;28;20310;-83
2024/02/20 04:05:13;;;;;;;28.50;13.33;;;8.30;99.90;;;;;;5097361;28;20175;-83
2024/02/20 04:07:44;;;;;;;26.37;12.83;;;8.30;99.90;;;;;;5097944;28;20164;-81
2024/02/20 04:10:12;;;;;;;24.70;12.93;;;8.40;99.90;;;;;;5116636;28;20178;-82
2024/02/20 04:12:38;;;;;;;26.10;12.40;;;8.40;99.90;;;;;;5099048;28;20220;-82
2024/02/20 04:15:08;;;;;;;26.53;12.47;;;8.30;99.90;;;;;;5097708;28;20183;-81
2024/02/20 04:17:34;;;;;;;27.20;13.53;;;8.20;99.90;;;;;;5098117;28;20214;-81
2024/02/20 04:20:03;;;;;;;26.67;12.67;;;8.20;99.90;;;;;;5098412;28;20207;-81
2024/02/20 04:22:30;;;;;;;21.67;13.23;;;8.20;99.90;;;;;;5097875;28;20198;-82
2024/02/20 04:24:57;;;;;;;23.13;12.60;;;8.10;99.90;;;;;;5097799;28;20296;-83
2024/02/20 04:27:22;;;;;;;23.97;13.67;;;8.20;99.90;;;;;;5116156;28;20250;-82
2024/02/20 04:29:48;;;;;;;25.73;13.23;;;8.40;99.90;;;;;;5096197;28;20254;-83
2024/02/20 04:32:13;;;;;;;31.73;14.80;;;8.30;99.90;;;;;;5115759;28;20159;-82
2024/02/20 04:34:39;;;;;;;27.17;13.27;;;8.10;99.90;;;;;;5097635;28;20589;-82
2024/02/20 04:37:05;;;;;;;22.60;12.50;;;8.00;99.90;;;;;;5097350;28;20721;-86
2024/02/20 04:39:30;;;;;;;24.40;12.93;;;8.10;99.90;;;;;;5098053;28;20288;-81
2024/02/20 04:41:58;;;;;;;23.80;13.50;;;8.20;99.90;;;;;;5098048;28;20208;-81
2024/02/20 04:44:24;;;;;;;24.57;13.80;;;8.30;99.90;;;;;;5097918;28;20210;-80
2024/02/20 04:46:50;;;;;;;23.53;13.53;;;8.10;99.90;;;;;;5096590;28;20650;-82
2024/02/20 04:49:15;;;;;;;25.43;13.47;;;8.20;99.90;;;;;;5096492;28;20179;-82
2024/02/20 04:51:41;;;;;;;30.57;14.33;;;8.10;99.90;;;;;;5096571;28;20531;-82
2024/02/20 04:54:08;;;;;;;24.47;13.10;;;8.30;99.90;;;;;;5113947;28;20631;-82
2024/02/20 04:56:34;;;;;;;22.90;13.00;;;8.20;99.90;;;;;;5096998;28;20167;-82
2024/02/20 04:58:59;;;;;;;27.57;14.00;;;8.20;99.90;;;;;;5115394;28;20666;-82
2024/02/20 05:01:25;;;;;;;21.87;13.60;;;8.30;99.90;;;;;;5096722;28;20682;-82
2024/02/20 05:03:51;;;;;;;23.37;14.00;;;8.20;99.90;;;;;;5096622;28;20171;-82
2024/02/20 05:06:17;;;;;;;22.57;12.60;;;8.20;99.90;;;;;;5096460;28;20714;-85
2024/02/20 05:08:43;;;;;;;27.40;13.87;;;8.10;99.90;;;;;;5096117;28;20558;-82
2024/02/20 05:11:08;;;;;;;26.93;13.37;;;8.10;99.90;;;;;;5095044;28;20181;-83
2024/02/20 05:13:34;;;;;;;26.17;13.57;;;8.30;99.90;;;;;;5096763;28;20340;-82
2024/02/20 05:16:01;;;;;;;25.90;13.17;;;8.10;99.90;;;;;;5095787;28;20175;-82
2024/02/20 05:18:27;;;;;;;25.23;14.30;;;8.00;99.90;;;;;;5114596;28;20270;-82
2024/02/20 05:20:52;;;;;;;30.17;14.10;;;8.10;99.90;;;;;;5095175;28;20332;-83
2024/02/20 05:23:18;;;;;;;23.53;12.63;;;8.10;99.90;;;;;;5096923;28;20171;-84
2024/02/20 05:25:43;;;;;;;24.40;12.30;;;8.00;99.90;;;;;;5096038;28;20697;-82
2024/02/20 05:28:09;;;;;;;23.63;12.70;;;8.00;99.90;;;;;;5096827;28;20181;-84
2024/02/20 05:30:36;;;;;;;21.47;12.70;;;7.90;99.90;;;;;;5096607;28;20535;-83
2024/02/20 05:33:02;;;;;;;22.77;12.70;;;7.90;99.90;;;;;;5113410;28;20166;-81
2024/02/20 05:35:28;;;;;;;22.30;12.37;;;7.90;99.90;;;;;;5097608;28;20270;-81
2024/02/20 05:37:53;;;;;;;23.23;12.63;;;7.90;99.90;;;;;;5129548;28;20638;-83
2024/02/20 05:40:19;;;;;;;26.50;12.83;;;8.00;99.90;;;;;;5105905;28;20202;-82
2024/02/20 05:42:45;;;;;;;26.30;13.43;;;7.80;99.90;;;;;;5094986;28;20175;-84
2024/02/20 05:45:10;;;;;;;22.07;13.70;;;7.90;99.90;;;;;;5095375;28;20175;-81
2024/02/20 05:47:36;;;;;;;26.20;13.97;;;8.10;99.90;;;;;;5096069;28;20167;-83
2024/02/20 05:50:02;;;;;;;28.27;13.27;;;8.00;99.90;;;;;;5095015;28;20210;-87
2024/02/20 05:52:28;;;;;;;25.70;14.57;;;8.00;99.90;;;;;;5095823;28;20177;-82
2024/02/20 05:54:54;;;;;;;28.63;13.60;;;8.00;99.90;;;;;;5094736;28;20178;-86
2024/02/20 05:57:19;;;;;;;26.87;13.80;;;7.90;99.90;;;;;;5095270;28;20174;-83
2024/02/20 05:59:45;;;;;;;27.13;14.27;;;7.90;99.90;;;;;;5095241;28;20567;-82
2024/02/20 06:02:11;;;;;;;29.47;13.67;;;7.90;99.90;;;;;;5095647;28;20225;-81
2024/02/20 06:04:39;;;;;;;28.77;14.17;;;7.90;99.90;;;;;;5095746;28;20178;-84
2024/02/20 06:07:04;;;;;;;24.53;13.83;;;7.90;99.90;;;;;;5113123;28;20544;-82
2024/02/20 06:09:30;;;;;;;23.83;13.43;;;7.90;99.90;;;;;;5095178;28;20181;-83
2024/02/20 06:11:55;;;;;;;27.50;13.17;;;7.90;99.90;;;;;;5095283;28;20170;-82
2024/02/20 06:14:21;;;;;;;25.20;13.63;;;7.90;99.90;;;;;;5095272;28;20623;-88
2024/02/20 06:16:47;;;;;;;20.70;12.10;;;7.80;99.90;;;;;;5094853;28;20179;-82
2024/02/20 06:19:13;;;;;;;28.20;13.43;;;7.90;99.90;;;;;;5094595;28;20662;-82
2024/02/20 06:21:40;;;;;;;23.27;13.90;;;7.80;99.90;;;;;;5094598;28;20498;-84
2024/02/20 06:24:06;;;;;;;28.73;13.47;;;7.90;99.90;;;;;;5095295;28;20652;-83
2024/02/20 06:26:34;;;;;;;25.87;12.30;;;7.80;99.90;;;;;;5094996;28;20175;-81
2024/02/20 06:29:00;;;;;;;28.87;13.03;;;7.90;99.90;;;;;;5095146;28;20178;-83
2024/02/20 06:31:25;;;;;;;25.23;12.37;;;7.70;99.90;;;;;;5095362;28;20200;-83
2024/02/20 06:33:51;;;;;;;20.57;13.17;;;7.70;99.90;;;;;;5093773;28;20631;-87
2024/02/20 06:36:17;;;;;;;30.53;14.30;;;7.80;99.90;;;;;;5095077;28;20190;-89
2024/02/20 06:38:42;;;;;;;21.23;12.23;;;7.80;99.90;;;;;;5095076;28;20269;-83
2024/02/20 06:41:09;;;;;;;28.83;12.77;;;7.70;99.90;;;;;;5094383;28;20252;-83
2024/02/20 06:43:36;;;;;;;25.63;12.53;;;7.70;99.90;;;;;;5094593;28;20170;-82
2024/02/20 06:46:02;;;;;;;28.53;14.00;;;7.70;99.90;;;;;;5094256;28;20187;-83
2024/02/20 06:48:28;;;;;;;29.17;13.37;;;7.70;99.90;;;;;;5094001;28;20171;-83
2024/02/20 06:50:54;;;;;;;30.13;13.23;;;7.70;99.90;;;;;;5094915;28;20182;-86
2024/02/20 06:53:20;;;;;;;25.37;14.10;;;7.80;99.90;;;;;;5071056;28;20187;-85
2024/02/20 06:55:45;;;;;;;27.30;13.57;;;7.80;99.90;;;;;;5080529;28;20187;-84
2024/02/20 06:58:11;;;;;;;22.93;13.10;;;7.90;99.90;;;;;;5089004;28;20198;-86
2024/02/20 07:00:37;;;;;;;27.03;14.40;;;7.90;99.90;;;;;;5091795;28;20729;-83
2024/02/20 07:03:04;;;;;;;28.03;13.97;;;7.90;99.90;;;;;;5090936;28;20308;-86
2024/02/20 07:05:31;;;;;;;24.20;13.43;;;7.80;99.90;;;;;;5093409;28;20240;-87
2024/02/20 07:07:56;;;;;;;25.83;14.17;;;7.80;99.90;;;;;;5086263;28;20179;-84
2024/02/20 07:10:22;;;;;;;26.40;14.37;;;7.90;99.90;;;;;;5088814;28;20159;-82
2024/02/20 07:12:47;;;;;;;26.13;13.93;;;7.90;99.90;;;;;;5097151;28;20167;-84
2024/02/20 07:15:13;;;;;;;28.40;15.50;;;7.90;99.90;;;;;;5113405;28;20185;-84
2024/02/20 07:17:39;;;;;;;24.70;13.63;;;8.10;99.90;;;;;;5115294;28;20182;-83
2024/02/20 07:20:05;;;;;;;28.67;13.53;;;8.00;99.90;;;;;;5102105;28;20740;-84
2024/02/20 07:22:32;;;;;;;34.60;15.43;;;8.10;99.90;;;;;;5099860;28;20177;-84
2024/02/20 07:25:01;;;;;;;25.20;13.67;;;8.20;99.90;;;;;;5098239;28;20615;-84
2024/02/20 07:27:27;;;;;;;26.87;14.23;;;8.00;99.90;;;;;;5099651;28;20262;-84
2024/02/20 07:29:53;;;;;;;25.20;13.87;;;8.20;99.90;;;;;;5100813;28;20198;-85
2024/02/20 07:32:19;;;;;;;29.33;14.30;;;7.90;99.90;;;;;;5101710;28;20238;-85
2024/02/20 07:34:46;;;;;;;31.20;14.13;;;8.00;99.90;;;;;;5098376;28;20266;-86
2024/02/20 07:37:12;;;;;;;32.83;14.77;;;8.00;99.90;;;;;;5098474;28;20220;-84
2024/02/20 07:39:39;;;;;;;25.37;13.87;;;7.90;99.90;;;;;;5098214;28;20195;-84
2024/02/20 07:42:07;;;;;;;26.90;15.20;;;7.90;99.90;;;;;;5097951;28;20626;-84
2024/02/20 07:44:33;;;;;;;26.87;14.43;;;7.80;99.90;;;;;;5098509;28;20226;-88
2024/02/20 07:46:59;;;;;;;31.73;15.23;;;7.80;99.90;;;;;;5097840;28;20653;-85
2024/02/20 07:49:25;;;;;;;30.30;14.90;;;7.90;99.90;;;;;;5098184;28;20175;-85
2024/02/20 07:51:50;;;;;;;29.13;14.90;;;7.80;99.90;;;;;;5098335;28;20286;-86
2024/02/20 07:54:16;;;;;;;23.53;14.87;;;7.70;99.90;;;;;;5098268;28;20593;-86
2024/02/20 07:56:43;;;;;;;28.67;14.10;;;7.80;99.90;;;;;;5116308;28;20167;-86
2024/02/20 07:59:10;;;;;;;29.87;14.43;;;8.00;99.90;;;;;;5098350;28;20191;-84
2024/02/20 08:01:36;;;;;;;34.43;14.47;;;7.80;99.90;;;;;;5097861;28;20218;-85
2024/02/20 08:04:02;;;;;;;27.70;14.73;;;7.90;99.90;;;;;;5098422;28;20181;-86
2024/02/20 08:06:28;;;;;;;24.47;13.40;;;7.90;99.90;;;;;;5099800;28;20254;-85
2024/02/20 08:08:53;;;;;;;28.03;14.37;;;8.00;99.90;;;;;;5100165;28;20170;-85
2024/02/20 08:11:19;;;;;;;29.70;14.40;;;8.20;99.90;;;;;;5100157;28;20231;-86
2024/02/20 08:13:46;;;;;;;23.23;13.47;;;8.20;99.90;;;;;;5100649;28;20201;-86
2024/02/20 08:16:12;;;;;;;26.60;13.47;;;8.10;99.90;;;;;;5099921;28;20179;-85
2024/02/20 08:18:40;;;;;;;27.00;12.63;;;8.10;99.90;;;;;;5098436;28;20167;-86
2024/02/20 08:21:10;;;;;;;28.40;12.57;;;8.20;99.90;;;;;;5097761;28;20548;-85
2024/02/20 08:23:36;;;;;;;26.33;12.50;;;8.20;99.90;;;;;;5098058;28;20166;-87
2024/02/20 08:26:03;;;;;;;28.20;12.67;;;8.20;99.90;;;;;;5097725;28;20201;-86
2024/02/20 08:28:29;;;;;;;22.93;11.77;;;8.30;99.90;;;;;;5096626;28;20179;-86
2024/02/20 08:30:56;;;;;;;26.53;12.23;;;8.30;99.90;;;;;;5097866;28;20310;-84
2024/02/20 08:33:22;;;;;;;30.13;12.63;;;8.40;99.90;;;;;;5098264;28;20689;-85
2024/02/20 08:35:48;;;;;;;25.60;12.50;;;8.50;99.90;;;;;;5097934;28;20174;-85
2024/02/20 08:38:16;;;;;;;23.83;11.53;;;8.50;99.90;;;;;;5098018;28;20227;-85
2024/02/20 08:40:42;;;;;;;25.03;12.90;;;8.70;99.90;;;;;;5097782;28;20222;-85
2024/02/20 08:43:08;;;;;;;27.97;12.27;;;8.60;99.90;;;;;;5097296;28;20171;-86
2024/02/20 08:45:34;;;;;;;27.83;12.10;;;8.70;99.90;;;;;;5097512;28;20270;-85
2024/02/20 08:48:01;;;;;;;21.50;11.83;;;8.60;99.90;;;;;;5097704;28;20232;-85
2024/02/20 08:50:27;;;;;;;25.40;12.37;;;8.70;99.90;;;;;;5097267;28;20242;-85
2024/02/20 08:52:53;;;;;;;27.80;11.07;;;8.60;99.90;;;;;;5097492;28;20277;-85
2024/02/20 08:55:19;;;;;;;22.73;11.27;;;8.70;99.90;;;;;;5097520;28;20210;-84
2024/02/20 08:57:44;;;;;;;21.87;11.20;;;8.60;99.90;;;;;;5097080;28;20731;-84
2024/02/20 09:00:11;;;;;;;25.47;11.63;;;8.70;99.90;;;;;;5097073;28;20616;-85
2024/02/20 09:02:46;;;;;;;25.70;12.00;;;8.70;99.90;;;;;;5097410;28;20183;-85
2024/02/20 09:05:12;;;;;;;23.90;10.43;;;8.80;99.90;;;;;;5097250;28;20170;-86
2024/02/20 09:07:41;;;;;;;22.93;10.93;;;8.90;99.90;;;;;;5097105;28;20193;-86
2024/02/20 09:10:07;;;;;;;23.63;10.10;;;9.00;99.90;;;;;;5097263;28;20265;-85
2024/02/20 09:12:33;;;;;;;24.20;10.20;;;8.90;99.90;;;;;;5097108;28;20175;-84
2024/02/20 09:15:01;;;;;;;24.70;10.50;;;8.90;99.90;;;;;;5097276;28;20213;-87
2024/02/20 09:17:27;;;;;;;19.83;10.03;;;8.90;99.90;;;;;;5097328;28;20187;-85
2024/02/20 09:19:53;;;;;;;24.10;9.97;;;9.10;99.90;;;;;;5098005;28;20207;-85
2024/02/20 09:22:19;;;;;;;22.13;10.17;;;9.20;99.90;;;;;;5099398;28;20196;-84
2024/02/20 09:24:45;;;;;;;22.43;10.23;;;9.20;99.90;;;;;;5098634;28;20286;-85
2024/02/20 09:27:11;;;;;;;21.93;9.70;;;9.30;99.90;;;;;;5114834;28;20167;-86
2024/02/20 09:29:37;;;;;;;17.30;10.13;;;9.40;99.90;;;;;;5096694;28;20224;-85
2024/02/20 09:32:03;;;;;;;23.90;10.00;;;9.30;99.90;;;;;;5114886;28;20179;-86
2024/02/20 09:34:29;;;;;;;19.10;10.67;;;9.30;99.90;;;;;;5097532;28;20174;-85
2024/02/20 09:36:55;;;;;;;22.50;10.27;;;9.50;99.90;;;;;;5097069;28;20266;-87
2024/02/20 09:39:21;;;;;;;24.30;9.90;;;9.50;99.90;;;;;;5098361;28;20602;-86
2024/02/20 09:41:51;;;;;;;27.17;9.80;;;9.70;99.90;;;;;;5116692;28;20283;-85
2024/02/20 09:44:17;;;;;;;23.13;10.53;;;9.70;99.90;;;;;;5100685;28;20191;-86
2024/02/20 09:46:47;;;;;;;23.23;10.50;;;9.90;99.90;;;;;;5100434;28;20797;-87
2024/02/20 09:49:14;;;;;;;20.37;10.20;;;10.10;99.90;;;;;;5099032;28;20257;-87
2024/02/20 09:51:42;;;;;;;25.73;10.00;;;10.00;99.90;;;;;;5096380;28;20596;-86
2024/02/20 09:54:08;;;;;;;21.23;9.67;;;10.00;99.90;;;;;;5096184;28;20186;-85
2024/02/20 09:56:36;;;;;;;25.80;9.27;;;10.10;99.90;;;;;;5095686;28;20262;-86
2024/02/20 09:59:04;;;;;;;29.40;10.13;;;10.10;99.90;;;;;;5096014;28;20191;-86
2024/02/20 10:01:31;;;;;;;17.20;9.40;;;10.00;99.90;;;;;;5095972;28;20663;-84
2024/02/20 10:04:00;;;;;;;19.73;8.97;;;10.10;99.90;;;;;;5096041;28;20175;-86
2024/02/20 10:06:26;;;;;;;20.90;8.80;;;10.20;99.90;;;;;;5095715;28;20198;-86
2024/02/20 10:08:54;;;;;;;21.40;8.77;;;10.20;99.90;;;;;;5096073;28;20171;-85
2024/02/20 10:11:20;;;;;;;22.53;9.23;;;10.30;99.90;;;;;;5097228;28;20187;-87
2024/02/20 10:13:49;;;;;;;23.10;8.33;;;10.50;99.90;;;;;;5097113;28;20692;-90
2024/02/20 10:16:16;;;;;;;22.13;8.13;;;10.60;99.90;;;;;;5095602;28;20215;-86
2024/02/20 10:18:42;;;;;;;20.90;7.97;;;10.70;99.90;;;;;;5095842;28;20172;-86
2024/02/20 10:21:09;;;;;;;23.47;8.00;;;10.80;99.90;;;;;;5095667;28;20306;-89
2024/02/20 10:23:35;;;;;;;18.00;7.33;;;10.80;99.90;;;;;;5096177;28;20172;-86
2024/02/20 10:26:01;;;;;;;18.20;7.30;;;10.90;99.90;;;;;;5095768;28;20227;-85
2024/02/20 10:28:28;;;;;;;20.43;7.67;;;10.90;99.90;;;;;;5095654;28;20491;-85
2024/02/20 10:30:55;;;;;;;20.87;7.27;;;11.00;99.30;;;;;;5095376;28;20271;-87
2024/02/20 10:33:22;;;;;;;21.67;7.73;;;11.00;94.50;;;;;;5095796;28;20305;-84
2024/02/20 10:35:47;;;;;;;25.07;8.73;;;11.20;93.70;;;;;;5095793;28;20190;-85
2024/02/20 10:38:18;;;;;;;19.60;8.10;;;11.30;93.40;;;;;;5095977;28;20182;-84
2024/02/20 10:40:45;;;;;;;19.77;7.20;;;11.40;92.40;;;;;;5095404;28;20205;-86
2024/02/20 10:43:12;;;;;;;20.93;7.50;;;11.30;93.10;;;;;;5095509;28;20326;-86
2024/02/20 10:45:39;;;;;;;21.40;8.17;;;11.40;93.80;;;;;;5095974;28;20263;-83
2024/02/20 10:48:10;;;;;;;23.77;8.93;;;11.50;93.10;;;;;;5095304;28;20234;-86
2024/02/20 10:50:36;;;;;;;21.23;8.20;;;11.60;90.20;;;;;;5096496;28;20556;-85
2024/02/20 10:53:02;;;;;;;21.47;7.17;;;11.70;88.90;;;;;;5094870;28;20698;-85
2024/02/20 10:55:29;;;;;;;16.10;8.07;;;11.80;87.90;;;;;;5095702;28;20170;-86
2024/02/20 10:58:00;;;;;;;19.20;6.67;;;11.90;81.70;;;;;;5095548;28;20302;-89
2024/02/20 11:00:26;;;;;;;16.97;6.73;;;12.00;81.00;;;;;;5099469;28;20247;-86
2024/02/20 11:02:53;;;;;;;19.73;8.13;;;11.90;77.90;;;;;;5095406;28;20278;-86
2024/02/20 11:05:19;;;;;;;21.93;6.90;;;12.00;78.90;;;;;;5096386;28;20175;-85
2024/02/20 11:07:45;;;;;;;18.03;7.23;;;12.10;75.20;;;;;;5095636;28;20171;-85
2024/02/20 11:10:23;;;;;;;25.53;8.23;;;11.90;75.60;;;;;;5095484;28;20182;-85
2024/02/20 11:12:50;;;;;;;13.67;6.33;;;11.90;78.20;;;;;;5100617;28;20180;-86
2024/02/20 11:15:20;;;;;;;20.47;7.13;;;11.80;80.50;;;;;;5100614;28;20187;-86
2024/02/20 11:17:48;;;;;;;15.60;7.23;;;11.60;84.00;;;;;;5095188;28;20215;-86
2024/02/20 11:20:20;;;;;;;14.77;6.70;;;11.80;86.30;;;;;;5094807;28;20665;-84
2024/02/20 11:22:46;;;;;;;15.57;7.43;;;11.70;85.00;;;;;;5094608;28;20627;-85
2024/02/20 11:25:26;;;;;;;21.10;7.00;;;11.80;85.10;;;;;;5095062;28;20656;-85
2024/02/20 11:27:52;;;;;;;16.57;6.90;;;11.70;75.80;;;;;;5094608;28;20177;-85
2024/02/20 11:30:21;;;;;;;18.27;7.93;;;11.50;81.60;;;;;;5094877;28;20176;-85
2024/02/20 11:32:56;;;;;;;17.03;8.73;;;11.30;87.20;;;;;;5094630;28;20252;-85
2024/02/20 11:35:27;;;;;;;20.97;8.03;;;11.20;93.60;;;;;;5095540;28;20250;-86
2024/02/20 11:37:54;;;;;;;22.43;9.60;;;11.30;94.40;;;;;;5112368;28;20174;-87
2024/02/20 11:40:23;;;;;;;18.67;10.10;;;11.20;97.00;;;;;;5094229;28;20214;-87
2024/02/20 11:42:50;;;;;;;19.03;11.43;;;11.40;98.00;;;;;;5094383;28;20175;-86
2024/02/20 11:45:24;;;;;;;22.90;11.40;;;11.20;99.20;;;;;;5094837;28;20183;-85
2024/02/20 11:48:03;;;;;;;25.03;12.30;;;10.90;99.90;;;;;;5095255;28;20184;-85
2024/02/20 11:50:29;;;;;;;17.17;10.90;;;10.70;99.90;;;;;;5094554;28;20604;-85
2024/02/20 11:53:05;;;;;;;25.30;14.57;;;10.60;99.90;;;;;;5094486;28;20222;-85
2024/02/20 11:55:32;;;;;;;24.33;12.67;;;10.40;99.90;;;;;;5094752;28;20254;-85
2024/02/20 11:58:02;;;;;;;23.90;13.93;;;10.30;99.90;;;;;;5094969;28;20185;-86
2024/02/20 12:00:38;;;;;;;23.23;13.50;;;10.30;99.90;;;;;;5094808;28;20217;-85
2024/02/20 12:03:07;;;;;;;24.97;14.33;;;10.30;99.90;;;;;;5095970;28;20236;-85
2024/02/20 12:05:37;;;;;;;19.57;13.10;;;10.10;99.90;;;;;;5117141;28;20258;-87
2024/02/20 12:08:13;;;;;;;22.03;13.83;;;10.00;99.90;;;;;;5098882;28;20182;-87
2024/02/20 12:10:40;;;;;;;32.63;17.13;;;9.90;99.90;;;;;;5098511;28;20188;-85
2024/02/20 12:13:15;;;;;;;32.33;16.20;;;9.80;99.90;;;;;;5098400;28;20179;-86
2024/02/20 12:15:42;;;;;;;26.63;15.93;;;9.80;99.90;;;;;;5097901;28;20170;-88
2024/02/20 12:18:11;;;;;;;23.27;14.73;;;9.80;99.90;;;;;;5097939;28;20214;-85
2024/02/20 12:20:37;;;;;;;24.53;15.43;;;10.00;99.90;;;;;;5116161;28;20256;-86
2024/02/20 12:23:03;;;;;;;24.23;13.67;;;10.00;99.90;;;;;;5098071;28;20580;-86
2024/02/20 12:25:28;;;;;;;22.10;13.07;;;10.10;99.90;;;;;;5097987;28;20186;-87
2024/02/20 12:27:54;;;;;;;25.50;13.50;;;10.20;99.90;;;;;;5098372;28;20644;-86
2024/02/20 12:30:20;;;;;;;27.83;13.67;;;10.20;99.90;;;;;;5098065;28;20170;-86
2024/02/20 12:32:46;;;;;;;22.87;13.67;;;10.20;99.90;;;;;;5097583;28;20175;-85
2024/02/20 12:35:12;;;;;;;31.10;13.57;;;10.20;99.90;;;;;;5097672;28;20171;-87